Weather at Graf Ignatievo Air Base

Public forecast

Using degrees Celsius for public forecast. Weather courtesy of forecast.io.

Current aviation weather report (METAR) for Graf Ignatievo Air Base

2024/07/20 14:00 (retrieved 1 hour ago)

LBPG 201400Z 15008KT 9999 FEW050 SCT100 36/15 Q1008

Aviation forecast (TAF) for Graf Ignatievo Air Base

Forecast is more than 12 hours old.

2024/07/18 17:00 (retrieved 2 days ago)

TAF LBPG 181600Z 1817/1905 09008G14KT 060V130 9999 SCT100 BECMG 1819/1821 VRB05KT BY LBSA